createdAt,value
2022-09-26T00:00:51.197Z,18.67
2022-09-26T00:03:17.754Z,21.53
2022-09-26T00:05:44.308Z,20.10
2022-09-26T00:08:10.818Z,19.30
2022-09-26T00:10:37.343Z,18.83
2022-09-26T00:13:03.890Z,20.60
2022-09-26T00:15:30.465Z,20.73
2022-09-26T00:17:57.018Z,21.57
2022-09-26T00:20:23.568Z,20.63
2022-09-26T00:22:50.133Z,19.57
2022-09-26T00:25:16.663Z,20.93
2022-09-26T00:27:43.294Z,20.63
2022-09-26T00:30:09.840Z,19.87
2022-09-26T00:32:36.354Z,20.07
2022-09-26T00:35:03.030Z,18.80
2022-09-26T00:37:29.578Z,20.77
2022-09-26T00:39:56.119Z,20.37
2022-09-26T00:42:22.650Z,20.90
2022-09-26T00:44:49.156Z,19.33
2022-09-26T00:47:15.649Z,19.47
2022-09-26T00:49:42.140Z,20.13
2022-09-26T00:52:08.686Z,19.17
2022-09-26T00:54:35.294Z,18.10
2022-09-26T00:57:01.823Z,19.80
2022-09-26T00:59:28.582Z,21.33
2022-09-26T01:01:55.383Z,19.63
2022-09-26T01:04:22.033Z,19.73
2022-09-26T01:06:48.623Z,19.60
2022-09-26T01:09:15.554Z,19.73
2022-09-26T01:11:42.271Z,20.53
2022-09-26T01:14:08.798Z,19.47
2022-09-26T01:16:35.335Z,21.00
2022-09-26T01:19:01.891Z,20.20
2022-09-26T01:21:28.461Z,20.67
2022-09-26T01:23:54.987Z,20.07
2022-09-26T01:26:21.532Z,21.50
2022-09-26T01:28:48.053Z,19.93
2022-09-26T01:31:14.810Z,21.33
2022-09-26T01:33:41.394Z,21.93
2022-09-26T01:36:07.885Z,21.97
2022-09-26T01:38:34.545Z,20.77
2022-09-26T01:41:01.048Z,21.83
2022-09-26T01:43:27.631Z,21.57
2022-09-26T01:45:54.218Z,22.37
2022-09-26T01:48:20.752Z,22.17
2022-09-26T01:50:47.250Z,21.63
2022-09-26T01:53:13.768Z,21.60
2022-09-26T01:55:40.287Z,21.67
2022-09-26T01:58:06.922Z,22.93
2022-09-26T02:00:33.452Z,21.37
2022-09-26T02:03:00.023Z,21.87
2022-09-26T02:05:26.563Z,21.40
2022-09-26T02:07:53.054Z,21.27
2022-09-26T02:10:19.664Z,20.70
2022-09-26T02:12:46.195Z,20.70
2022-09-26T02:15:12.743Z,20.77
2022-09-26T02:17:39.315Z,21.17
2022-09-26T02:20:05.874Z,23.17
2022-09-26T02:22:32.441Z,22.40
2022-09-26T02:24:59.002Z,21.27
2022-09-26T02:27:25.598Z,22.53
2022-09-26T02:29:52.167Z,22.53
2022-09-26T02:32:18.750Z,22.83
2022-09-26T02:34:45.342Z,22.77
2022-09-26T02:37:11.897Z,22.17
2022-09-26T02:39:38.394Z,21.47
2022-09-26T02:42:04.929Z,21.63
2022-09-26T02:44:31.620Z,22.03
2022-09-26T02:46:58.114Z,21.63
2022-09-26T02:49:24.658Z,22.63
2022-09-26T02:51:51.158Z,20.87
2022-09-26T02:54:17.690Z,21.13
2022-09-26T02:56:44.234Z,22.93
2022-09-26T02:59:10.772Z,22.80
2022-09-26T03:01:37.283Z,22.03
2022-09-26T03:04:03.827Z,22.13
2022-09-26T03:06:30.319Z,21.83
2022-09-26T03:08:56.886Z,21.23
2022-09-26T03:11:23.447Z,21.47
2022-09-26T03:13:49.987Z,22.23
2022-09-26T03:16:16.575Z,21.50
2022-09-26T03:18:43.140Z,21.37
2022-09-26T03:21:09.678Z,19.63
2022-09-26T03:23:36.199Z,20.73
2022-09-26T03:26:02.694Z,20.93
2022-09-26T03:28:32.761Z,20.17
2022-09-26T03:31:01.985Z,20.00
2022-09-26T03:33:30.925Z,21.70
2022-09-26T03:35:59.979Z,18.77
2022-09-26T03:38:26.558Z,23.00
2022-09-26T03:40:53.101Z,19.60
2022-09-26T03:43:19.667Z,19.93
2022-09-26T03:45:47.231Z,19.83
2022-09-26T03:48:13.785Z,19.97
2022-09-26T03:50:40.312Z,19.17
2022-09-26T03:53:06.836Z,19.40
2022-09-26T03:55:33.341Z,20.30
2022-09-26T03:57:59.842Z,19.17
2022-09-26T04:00:26.385Z,19.43
2022-09-26T04:02:52.869Z,18.73
2022-09-26T04:05:19.473Z,18.60
2022-09-26T04:07:46.161Z,19.27
2022-09-26T04:10:12.641Z,19.00
2022-09-26T04:12:39.166Z,18.93
2022-09-26T04:15:05.752Z,17.07
2022-09-26T04:17:32.286Z,17.27
2022-09-26T04:19:58.928Z,16.17
2022-09-26T04:22:25.469Z,17.20
2022-09-26T04:24:52.007Z,18.27
2022-09-26T04:27:18.501Z,16.77
2022-09-26T04:29:45.019Z,18.60
2022-09-26T04:32:12.761Z,17.23
2022-09-26T04:34:39.334Z,16.47
2022-09-26T04:37:05.835Z,14.50
2022-09-26T04:39:32.390Z,15.17
2022-09-26T04:41:59.007Z,12.93
2022-09-26T04:44:25.506Z,12.83
2022-09-26T04:46:52.105Z,12.27
2022-09-26T04:49:18.637Z,11.40
2022-09-26T04:51:45.210Z,10.07
2022-09-26T04:54:11.958Z,10.27
2022-09-26T04:56:38.429Z,10.87
2022-09-26T04:59:04.927Z,10.20
2022-09-26T05:01:31.613Z,10.10
2022-09-26T05:03:58.229Z,8.70
2022-09-26T05:06:24.751Z,8.83
2022-09-26T05:08:51.338Z,9.47
2022-09-26T05:11:17.895Z,9.33
2022-09-26T05:13:44.413Z,9.43
2022-09-26T05:16:11.211Z,9.07
2022-09-26T05:18:37.718Z,8.93
2022-09-26T05:21:04.468Z,8.83
2022-09-26T05:23:31.946Z,9.27
2022-09-26T05:25:58.435Z,8.57
2022-09-26T05:28:24.997Z,9.33
2022-09-26T05:30:51.541Z,8.80
2022-09-26T05:33:18.085Z,8.93
2022-09-26T05:35:44.659Z,8.70
2022-09-26T05:38:11.185Z,9.13
2022-09-26T05:40:37.777Z,9.23
2022-09-26T05:43:04.367Z,10.20
2022-09-26T05:45:30.903Z,9.50
2022-09-26T05:47:57.448Z,9.70
2022-09-26T05:50:24.030Z,10.27
2022-09-26T05:52:50.529Z,9.87
2022-09-26T05:55:17.085Z,10.77
2022-09-26T05:57:43.605Z,10.70
2022-09-26T06:00:10.145Z,11.00
2022-09-26T06:02:36.702Z,10.23
2022-09-26T06:05:03.319Z,10.83
2022-09-26T06:07:29.908Z,10.30
2022-09-26T06:09:56.458Z,10.87
2022-09-26T06:12:23.037Z,11.47
2022-09-26T06:14:49.570Z,10.70
2022-09-26T06:17:16.144Z,10.50
2022-09-26T06:19:42.664Z,10.23
2022-09-26T06:22:09.202Z,11.07
2022-09-26T06:24:35.729Z,10.93
2022-09-26T06:27:02.545Z,11.27
2022-09-26T06:29:29.066Z,10.77
2022-09-26T06:31:55.665Z,12.63
2022-09-26T06:34:22.345Z,9.57
2022-09-26T06:36:48.903Z,10.73
2022-09-26T06:39:15.467Z,20.97
2022-09-26T06:41:42.070Z,10.73
2022-09-26T06:44:08.619Z,10.63
2022-09-26T06:46:35.135Z,12.10
2022-09-26T06:49:01.711Z,11.67
2022-09-26T06:51:28.519Z,11.80
2022-09-26T06:53:55.052Z,13.50
2022-09-26T06:56:21.596Z,13.40
2022-09-26T06:58:48.151Z,11.23
2022-09-26T07:01:14.731Z,9.63
2022-09-26T07:03:45.445Z,12.50
2022-09-26T07:06:12.586Z,14.57
2022-09-26T07:09:01.061Z,12.17
2022-09-26T07:11:41.572Z,12.00
2022-09-26T07:14:12.315Z,11.30
2022-09-26T07:16:38.910Z,12.20
2022-09-26T07:19:05.452Z,12.50
2022-09-26T07:21:32.018Z,12.27
2022-09-26T07:23:58.586Z,11.93
2022-09-26T07:26:25.144Z,10.03
2022-09-26T07:28:54.691Z,10.13
2022-09-26T07:31:21.702Z,11.33
2022-09-26T07:33:48.290Z,9.60
2022-09-26T07:36:14.855Z,10.80
2022-09-26T07:38:41.403Z,9.33
2022-09-26T07:41:10.942Z,10.17
2022-09-26T07:46:24.352Z,10.03
2022-09-26T07:48:51.049Z,9.60
2022-09-26T07:51:17.597Z,9.83
2022-09-26T07:53:44.308Z,10.17
2022-09-26T07:56:10.952Z,10.37
2022-09-26T07:58:37.539Z,10.50
2022-09-26T08:01:04.064Z,10.53
2022-09-26T08:03:30.594Z,10.03
2022-09-26T08:05:57.162Z,10.47
2022-09-26T08:08:23.724Z,9.97
2022-09-26T08:10:50.219Z,10.17
2022-09-26T08:13:16.900Z,10.67
2022-09-26T08:15:43.415Z,11.17
2022-09-26T08:18:09.955Z,10.70
2022-09-26T08:20:36.488Z,9.67
2022-09-26T08:23:03.024Z,9.17
2022-09-26T08:25:29.565Z,8.30
2022-09-26T08:27:56.138Z,9.07
2022-09-26T08:30:22.709Z,9.50
2022-09-26T08:32:49.304Z,9.63
2022-09-26T08:35:15.783Z,9.90
2022-09-26T08:37:42.319Z,8.23
2022-09-26T08:40:08.843Z,8.43
2022-09-26T08:42:35.487Z,7.50
2022-09-26T08:45:01.972Z,7.50
2022-09-26T08:47:28.530Z,7.17
2022-09-26T08:49:55.081Z,7.27
2022-09-26T08:52:21.585Z,6.90
2022-09-26T08:54:48.241Z,7.23
2022-09-26T08:57:14.771Z,6.80
2022-09-26T08:59:41.323Z,6.73
2022-09-26T09:02:07.914Z,6.47
2022-09-26T09:04:34.486Z,6.70
2022-09-26T09:07:00.988Z,7.03
2022-09-26T09:09:27.691Z,6.33
2022-09-26T09:11:54.255Z,6.40
2022-09-26T09:14:20.753Z,6.60
2022-09-26T09:16:47.299Z,6.83
2022-09-26T09:19:13.830Z,7.73
2022-09-26T09:21:42.005Z,6.90
2022-09-26T09:24:09.032Z,6.27
2022-09-26T09:29:22.117Z,6.47
2022-09-26T09:31:48.787Z,6.40
2022-09-26T09:34:15.549Z,6.97
2022-09-26T09:36:42.211Z,6.40
2022-09-26T09:39:08.821Z,5.83
2022-09-26T09:41:35.369Z,5.67
2022-09-26T09:44:01.968Z,6.10
2022-09-26T09:46:28.577Z,5.47
2022-09-26T09:48:55.305Z,5.53
2022-09-26T09:51:21.945Z,6.60
2022-09-26T09:53:48.453Z,6.17
2022-09-26T09:56:15.177Z,6.47
2022-09-26T09:58:41.731Z,6.37
2022-09-26T10:01:08.215Z,6.27
2022-09-26T10:03:34.811Z,6.63
2022-09-26T10:06:01.343Z,6.07
2022-09-26T10:08:27.925Z,6.23
2022-09-26T10:10:54.463Z,6.67
2022-09-26T10:13:21.021Z,6.80
2022-09-26T10:15:50.040Z,6.10
2022-09-26T10:18:25.831Z,6.00
2022-09-26T10:20:53.190Z,5.50
2022-09-26T10:23:19.735Z,5.93
2022-09-26T10:25:46.273Z,5.87
2022-09-26T10:28:12.852Z,6.50
2022-09-26T10:30:39.371Z,6.17
2022-09-26T10:33:05.896Z,5.40
2022-09-26T10:35:32.472Z,5.27
2022-09-26T10:37:58.961Z,5.40
2022-09-26T10:40:25.570Z,4.60
2022-09-26T10:42:52.130Z,5.60
2022-09-26T10:45:18.620Z,5.13
2022-09-26T10:47:45.142Z,5.10
2022-09-26T10:50:11.704Z,5.13
2022-09-26T10:52:38.220Z,4.90
2022-09-26T10:55:04.817Z,5.10
2022-09-26T10:57:31.388Z,4.63
2022-09-26T10:59:57.881Z,5.07
2022-09-26T11:02:24.395Z,5.03
2022-09-26T11:04:50.978Z,5.70
2022-09-26T11:07:17.509Z,6.10
2022-09-26T11:09:44.021Z,5.60
2022-09-26T11:12:10.544Z,5.80
2022-09-26T11:14:37.110Z,6.10
2022-09-26T11:17:03.614Z,5.63
2022-09-26T11:19:30.173Z,5.87
2022-09-26T11:21:58.565Z,5.70
2022-09-26T11:24:25.264Z,5.50
2022-09-26T11:26:51.829Z,5.00
2022-09-26T11:29:18.379Z,4.80
2022-09-26T11:31:45.009Z,5.13
2022-09-26T11:34:11.572Z,5.17
2022-09-26T11:36:38.126Z,5.33
2022-09-26T11:39:04.611Z,6.03
2022-09-26T11:41:31.163Z,6.03
2022-09-26T11:43:57.745Z,5.97
2022-09-26T11:46:24.354Z,6.30
2022-09-26T11:48:50.913Z,6.07
2022-09-26T11:51:17.455Z,6.27
2022-09-26T11:53:43.985Z,6.97
2022-09-26T11:56:10.518Z,6.67
2022-09-26T11:58:37.029Z,5.90
2022-09-26T12:01:03.554Z,6.93
2022-09-26T12:03:30.178Z,6.63
2022-09-26T12:05:56.900Z,6.30
2022-09-26T12:08:23.928Z,6.60
2022-09-26T12:10:50.542Z,6.23
2022-09-26T12:13:17.039Z,7.03
2022-09-26T12:15:43.596Z,6.17
2022-09-26T12:18:10.182Z,6.93
2022-09-26T12:20:36.731Z,6.40
2022-09-26T12:23:03.253Z,6.57
2022-09-26T12:25:31.712Z,7.17
2022-09-26T12:27:58.413Z,5.83
2022-09-26T12:30:24.979Z,6.47
2022-09-26T12:32:51.552Z,5.93
2022-09-26T12:35:18.100Z,5.50
2022-09-26T12:37:44.590Z,6.13
2022-09-26T12:40:11.250Z,5.67
2022-09-26T12:42:37.853Z,5.80
2022-09-26T12:45:04.351Z,6.10
2022-09-26T12:47:30.992Z,5.73
2022-09-26T12:49:57.515Z,5.40
2022-09-26T12:52:27.331Z,5.97
2022-09-26T12:54:54.226Z,5.83
2022-09-26T12:57:23.584Z,5.97
2022-09-26T12:59:51.505Z,6.10
2022-09-26T13:02:18.170Z,5.40
2022-09-26T13:04:44.899Z,5.60
2022-09-26T13:07:20.128Z,5.73
2022-09-26T13:09:47.141Z,5.47
2022-09-26T13:12:13.721Z,5.43
2022-09-26T13:14:40.210Z,4.80
2022-09-26T13:17:06.873Z,5.20
2022-09-26T13:19:33.439Z,5.10
2022-09-26T13:22:00.024Z,4.10
2022-09-26T13:24:26.573Z,4.67
2022-09-26T13:26:53.083Z,4.40
2022-09-26T13:29:19.633Z,7.07
2022-09-26T13:31:46.189Z,4.37
2022-09-26T13:34:13.098Z,4.20
2022-09-26T13:36:39.675Z,4.70
2022-09-26T13:39:06.164Z,4.60
2022-09-26T13:41:32.794Z,4.73
2022-09-26T13:43:59.311Z,2.30
2022-09-26T13:46:25.988Z,2.50
2022-09-26T13:48:52.556Z,1.50
2022-09-26T13:51:19.052Z,1.83
2022-09-26T13:53:45.617Z,1.37
2022-09-26T13:56:12.291Z,1.37
2022-09-26T13:58:38.829Z,1.20
2022-09-26T14:01:05.435Z,1.90
2022-09-26T14:03:31.993Z,1.60
2022-09-26T14:05:58.533Z,1.80
2022-09-26T14:08:25.059Z,1.70
2022-09-26T14:10:51.541Z,1.70
2022-09-26T14:13:18.073Z,1.40
2022-09-26T14:15:44.721Z,1.93
2022-09-26T14:18:11.293Z,1.73
2022-09-26T14:20:37.807Z,1.30
2022-09-26T14:23:04.411Z,1.50
2022-09-26T14:25:30.919Z,1.40
2022-09-26T14:27:57.422Z,1.30
2022-09-26T14:30:23.902Z,1.20
2022-09-26T14:32:50.437Z,1.80
2022-09-26T14:35:17.049Z,1.60
2022-09-26T14:37:46.736Z,1.80
2022-09-26T14:40:13.259Z,1.77
2022-09-26T14:42:39.781Z,1.93
2022-09-26T14:45:06.366Z,1.70
2022-09-26T14:47:32.853Z,1.60
2022-09-26T14:49:59.430Z,1.97
2022-09-26T14:52:25.947Z,1.67
2022-09-26T14:54:52.431Z,1.60
2022-09-26T14:57:21.056Z,1.80
2022-09-26T14:59:47.871Z,1.70
2022-09-26T15:02:14.525Z,1.83
2022-09-26T15:04:41.165Z,1.70
2022-09-26T15:07:07.771Z,1.70
2022-09-26T15:09:34.314Z,1.60
2022-09-26T15:12:00.825Z,2.00
2022-09-26T15:14:27.335Z,1.73
2022-09-26T15:16:56.898Z,2.13
2022-09-26T15:19:23.374Z,1.80
2022-09-26T15:21:49.872Z,1.80
2022-09-26T15:24:16.411Z,1.30
2022-09-26T15:26:43.141Z,1.80
2022-09-26T15:29:09.703Z,1.40
2022-09-26T15:31:36.265Z,1.50
2022-09-26T15:34:02.848Z,1.60
2022-09-26T15:36:29.386Z,1.60
2022-09-26T15:38:55.954Z,1.60
2022-09-26T15:41:28.484Z,1.90
2022-09-26T15:43:54.961Z,1.80
2022-09-26T15:46:21.575Z,2.10
2022-09-26T15:48:48.268Z,1.40
2022-09-26T15:51:14.747Z,1.33
2022-09-26T15:53:41.293Z,2.40
2022-09-26T15:56:07.778Z,3.80
2022-09-26T15:58:34.353Z,4.07
2022-09-26T16:01:01.068Z,2.70
2022-09-26T16:03:27.598Z,1.70
2022-09-26T16:05:54.195Z,1.70
2022-09-26T16:08:20.782Z,1.50
2022-09-26T16:10:47.447Z,1.57
2022-09-26T16:13:13.982Z,2.20
2022-09-26T16:15:40.665Z,7.17
2022-09-26T16:18:07.241Z,1.97
2022-09-26T16:20:33.762Z,5.10
2022-09-26T16:23:04.389Z,2.20
2022-09-26T16:25:31.943Z,1.80
2022-09-26T16:27:58.546Z,1.93
2022-09-26T16:30:25.084Z,2.80
2022-09-26T16:32:51.701Z,2.13
2022-09-26T16:35:18.318Z,2.30
2022-09-26T16:37:44.924Z,2.10
2022-09-26T16:40:11.530Z,1.77
2022-09-26T16:42:38.149Z,2.13
2022-09-26T16:45:04.688Z,2.10
2022-09-26T16:47:31.229Z,2.00
2022-09-26T16:49:57.818Z,2.50
2022-09-26T16:52:24.392Z,2.30
2022-09-26T16:54:51.080Z,2.80
2022-09-26T16:57:17.613Z,3.40
2022-09-26T16:59:44.094Z,3.47
2022-09-26T17:02:10.705Z,3.00
2022-09-26T17:04:37.320Z,2.80
2022-09-26T17:07:08.884Z,3.20
2022-09-26T17:09:36.190Z,3.17
2022-09-26T17:12:02.719Z,2.77
2022-09-26T17:14:29.252Z,3.00
2022-09-26T17:16:58.197Z,2.27
2022-09-26T17:19:24.799Z,2.30
2022-09-26T17:21:51.333Z,2.80
2022-09-26T17:24:17.873Z,2.50
2022-09-26T17:26:44.330Z,2.23
2022-09-26T17:29:10.909Z,2.60
2022-09-26T17:31:37.568Z,2.40
2022-09-26T17:34:04.168Z,2.50
2022-09-26T17:36:30.859Z,2.60
2022-09-26T17:38:57.400Z,3.40
2022-09-26T17:41:23.923Z,4.80
2022-09-26T17:43:50.470Z,4.63
2022-09-26T17:46:17.062Z,3.60
2022-09-26T17:48:43.769Z,6.23
2022-09-26T17:51:10.323Z,6.27
2022-09-26T17:53:36.882Z,8.00
2022-09-26T17:56:03.425Z,11.47
2022-09-26T17:58:29.970Z,11.93
2022-09-26T18:00:56.535Z,11.70
2022-09-26T18:03:23.011Z,14.63
2022-09-26T18:05:49.498Z,11.20
2022-09-26T18:08:16.144Z,9.90
2022-09-26T18:10:42.688Z,9.97
2022-09-26T18:13:13.160Z,9.80
2022-09-26T18:15:40.228Z,7.97
2022-09-26T18:18:06.794Z,7.93
2022-09-26T18:20:33.297Z,8.10
2022-09-26T18:22:59.851Z,7.50
2022-09-26T18:25:26.411Z,6.07
2022-09-26T18:27:53.014Z,5.10
2022-09-26T18:30:19.567Z,7.07
2022-09-26T18:32:46.242Z,6.47
2022-09-26T18:35:12.805Z,6.70
2022-09-26T18:37:39.350Z,4.10
2022-09-26T18:40:05.887Z,3.90
2022-09-26T18:42:32.409Z,4.00
2022-09-26T18:45:01.540Z,3.90
2022-09-26T18:47:28.210Z,3.97
2022-09-26T18:49:54.783Z,3.20
2022-09-26T18:52:21.344Z,3.70
2022-09-26T18:54:47.920Z,3.37
2022-09-26T18:57:14.414Z,3.33
2022-09-26T18:59:40.946Z,3.90
2022-09-26T19:02:07.597Z,3.90
2022-09-26T19:04:34.240Z,4.17
2022-09-26T19:07:00.697Z,3.93
2022-09-26T19:09:27.192Z,3.70
2022-09-26T19:11:53.725Z,3.57
2022-09-26T19:14:20.250Z,4.10
2022-09-26T19:16:46.853Z,4.10
2022-09-26T19:19:13.450Z,4.43
2022-09-26T19:21:40.151Z,4.60
2022-09-26T19:24:06.700Z,5.67
2022-09-26T19:26:33.229Z,5.40
2022-09-26T19:28:59.766Z,5.00
2022-09-26T19:31:26.411Z,4.83
2022-09-26T19:33:52.974Z,4.47
2022-09-26T19:36:19.451Z,4.87
2022-09-26T19:38:46.080Z,4.27
2022-09-26T19:41:12.646Z,4.50
2022-09-26T19:43:39.266Z,4.40
2022-09-26T19:46:05.807Z,4.07
2022-09-26T19:48:37.824Z,4.33
2022-09-26T19:51:05.293Z,4.20
2022-09-26T19:53:31.843Z,4.80
2022-09-26T19:55:58.387Z,4.53
2022-09-26T19:58:24.956Z,4.40
2022-09-26T20:00:51.539Z,4.33
2022-09-26T20:03:18.085Z,4.67
2022-09-26T20:05:44.683Z,4.00
2022-09-26T20:08:11.223Z,4.10
2022-09-26T20:10:37.755Z,3.87
2022-09-26T20:13:04.304Z,4.50
2022-09-26T20:15:30.844Z,3.80
2022-09-26T20:17:57.423Z,4.10
2022-09-26T20:20:24.015Z,4.70
2022-09-26T20:22:50.530Z,4.00
2022-09-26T20:25:17.072Z,4.50
2022-09-26T20:27:43.567Z,4.33
2022-09-26T20:30:10.195Z,4.70
2022-09-26T20:32:36.685Z,4.33
2022-09-26T20:35:03.235Z,4.40
2022-09-26T20:37:29.785Z,4.60
2022-09-26T20:39:56.293Z,4.30
2022-09-26T20:42:22.842Z,4.20
2022-09-26T20:44:49.385Z,3.90
2022-09-26T20:47:15.984Z,4.00
2022-09-26T20:49:42.560Z,3.90
2022-09-26T20:52:09.082Z,4.10
2022-09-26T20:54:37.336Z,4.30
2022-09-26T20:57:03.854Z,4.17
2022-09-26T20:59:30.386Z,4.10
2022-09-26T21:01:57.037Z,4.27
2022-09-26T21:04:24.900Z,4.67
2022-09-26T21:06:51.474Z,4.23
2022-09-26T21:09:18.071Z,5.10
2022-09-26T21:11:47.163Z,4.10
2022-09-26T21:14:13.652Z,4.70
2022-09-26T21:16:40.219Z,4.10
2022-09-26T21:19:06.773Z,4.07
2022-09-26T21:21:33.298Z,4.60
2022-09-26T21:23:59.882Z,4.33
2022-09-26T21:26:26.368Z,5.20
2022-09-26T21:28:53.127Z,5.13
2022-09-26T21:31:19.630Z,5.30
2022-09-26T21:33:46.242Z,4.93
2022-09-26T21:36:12.845Z,4.70
2022-09-26T21:38:39.356Z,4.50
2022-09-26T21:41:05.932Z,5.50
2022-09-26T21:43:32.591Z,4.80
2022-09-26T21:45:59.122Z,3.90
2022-09-26T21:48:25.691Z,4.40
2022-09-26T21:50:57.436Z,3.93
2022-09-26T21:53:24.505Z,5.07
2022-09-26T21:55:51.006Z,4.27
2022-09-26T21:58:17.572Z,4.03
2022-09-26T22:00:44.055Z,3.43
2022-09-26T22:03:10.604Z,3.40
2022-09-26T22:05:37.093Z,3.30
2022-09-26T22:08:03.627Z,5.03
2022-09-26T22:10:30.237Z,6.50
2022-09-26T22:12:56.771Z,4.20
2022-09-26T22:15:23.281Z,5.20
2022-09-26T22:17:49.854Z,4.87
2022-09-26T22:20:16.398Z,5.20
2022-09-26T22:22:42.914Z,4.57
2022-09-26T22:25:09.521Z,4.80
2022-09-26T22:27:36.048Z,4.60
2022-09-26T22:30:02.566Z,4.40
2022-09-26T22:32:29.085Z,4.50
2022-09-26T22:34:55.724Z,4.63
2022-09-26T22:37:22.265Z,4.57
2022-09-26T22:39:48.797Z,4.73
2022-09-26T22:42:15.282Z,4.50
2022-09-26T22:44:41.772Z,4.83
2022-09-26T22:47:08.261Z,5.10
2022-09-26T22:49:34.803Z,5.33
2022-09-26T22:52:01.341Z,5.10
2022-09-26T22:54:27.898Z,3.90
2022-09-26T22:56:54.416Z,4.60
2022-09-26T22:59:20.970Z,4.83
2022-09-26T23:01:47.598Z,5.03
2022-09-26T23:04:14.159Z,4.60
2022-09-26T23:06:40.628Z,5.53
2022-09-26T23:09:07.206Z,5.30
2022-09-26T23:11:33.718Z,5.30
2022-09-26T23:14:00.198Z,5.27
2022-09-26T23:16:26.737Z,4.73
2022-09-26T23:18:53.343Z,4.43
2022-09-26T23:21:19.873Z,4.60
2022-09-26T23:23:46.372Z,4.57
2022-09-26T23:26:12.903Z,4.20
2022-09-26T23:28:39.434Z,4.37
2022-09-26T23:31:06.017Z,4.67
2022-09-26T23:33:32.582Z,4.90
2022-09-26T23:35:59.102Z,4.67
2022-09-26T23:38:25.662Z,5.00
2022-09-26T23:40:52.229Z,5.00
2022-09-26T23:43:18.801Z,5.00
2022-09-26T23:45:45.329Z,5.03
2022-09-26T23:48:11.967Z,5.30
2022-09-26T23:50:38.516Z,4.60
2022-09-26T23:53:06.721Z,4.97
2022-09-26T23:55:33.501Z,4.87
2022-09-26T23:58:00.203Z,4.83
